Asher, Oklahoma
Current Conditions -  °F | °C
As of 12:35 PM on Sunday 23 Nov 2014 (Local Time) from KADH Reporting Station
Clear Clear  
Wind Chill: 19°   Ceiling: Unl
Heat Index: 19°   Visibility: 10mi
Dew Point: 11°   Wind: 13mph
Humidity: 60%   Direction: 220°SW
Pressure: 29.33"   Gusts: 18mph
Location:  34.99°N, 96.92°W
Report Text: KADH 231835Z AUTO 22011G16KT 10SM CLR 19/11 A2933 RMK AO2
Loading
Personal Weather Stations






























Interactive Weather Map New forecast layout! Learn more

10-Day Weather Forecast

Advertisements
Track Severe Weather on mobile